Bosques, Argentina
Current Conditions -  °F | °C
As of 11:00 AM on Thursday 27 Nov 2014 (Local Time) from SAEZ Reporting Station
Clear Clear  
Wind Chill: 26°   Ceiling: Unl
Heat Index: 26°   Visibility: 6mi
Dew Point: 11°   Wind: 6mph
Humidity: 39%   Direction: NA
Pressure: 30.03"   Gusts: NA
Location:  34.82°S, 58.23°W
Report Text: SAEZ 271400Z VRB05KT CAVOK 26/11 Q1017
Loading
Personal Weather Stations






























Interactive Weather Map New forecast layout! Learn more

10-Day Weather Forecast

Advertisements
Track Severe Weather on mobile